DLH33B EDDN-EDDC
Flight info
| Callsign | DLH33B |
|---|---|
| Flight time | 0h 46m |
| Altitude | 15000 |
| Route | ERETO1C ERETO Z715 ABKIS/N0278F140 Q240 DRN/N0280F130 |
| Aircraft | AT76/M-SDFGIRY/S |
Departure
| Time | 2026-05-01 08:47 |
|---|---|
| Airport | Nuremberg Airport (EDDN) |
Arrival
| Time | 2026-05-01 09:33 |
|---|---|
| Airport | Dresden Airport (EDDC) |
| Time | Latitude | Longitude | Altitude | Speed | Heading |
|---|---|---|---|---|---|
| 2026-05-01 08:25 | 49.49613 | 11.07923 | 1036 ft | 0 kts | 189° |
| 2026-05-01 08:41 | 49.49595 | 11.07919 | 1036 ft | 8 kts | 189° |
| 2026-05-01 08:42 | 49.49576 | 11.07854 | 1034 ft | 9 kts | 274° |
| 2026-05-01 08:42 | 49.49614 | 11.07763 | 1036 ft | 12 kts | 352° |
| 2026-05-01 08:42 | 49.49680 | 11.07752 | 1039 ft | 9 kts | 310° |
| 2026-05-01 08:42 | 49.49694 | 11.07649 | 1040 ft | 12 kts | 278° |
| 2026-05-01 08:43 | 49.49710 | 11.07489 | 1037 ft | 18 kts | 280° |
| 2026-05-01 08:43 | 49.49731 | 11.07283 | 1034 ft | 20 kts | 278° |
| 2026-05-01 08:43 | 49.49753 | 11.07062 | 1031 ft | 22 kts | 279° |
| 2026-05-01 08:43 | 49.49774 | 11.06829 | 1027 ft | 23 kts | 278° |
| 2026-05-01 08:44 | 49.49794 | 11.06619 | 1025 ft | 15 kts | 278° |
| 2026-05-01 08:44 | 49.49841 | 11.06521 | 1027 ft | 9 kts | 339° |
| 2026-05-01 08:44 | 49.49891 | 11.06492 | 1026 ft | 0 kts | 339° |
| 2026-05-01 08:44 | 49.49920 | 11.06480 | 1026 ft | 9 kts | 353° |
| 2026-05-01 08:45 | 49.49990 | 11.06502 | 1029 ft | 10 kts | 47° |
| 2026-05-01 08:45 | 49.49993 | 11.06546 | 1030 ft | 0 kts | 96° |
| 2026-05-01 08:46 | 49.49992 | 11.06551 | 1030 ft | 0 kts | 105° |
| 2026-05-01 08:46 | 49.49963 | 11.06841 | 1029 ft | 55 kts | 95° |
| 2026-05-01 08:46 | 49.49879 | 11.07691 | 1044 ft | 105 kts | 100° |
| 2026-05-01 08:46 | 49.49768 | 11.08837 | 1479 ft | 104 kts | 98° |
| 2026-05-01 08:47 | 49.49682 | 11.09985 | 1900 ft | 121 kts | 97° |
| 2026-05-01 08:47 | 49.49551 | 11.11462 | 2190 ft | 149 kts | 98° |
| 2026-05-01 08:47 | 49.49410 | 11.13080 | 2768 ft | 156 kts | 99° |
| 2026-05-01 08:47 | 49.49237 | 11.14794 | 3278 ft | 166 kts | 100° |
| 2026-05-01 08:48 | 49.49073 | 11.16579 | 3853 ft | 173 kts | 96° |
| 2026-05-01 08:48 | 49.49179 | 11.18440 | 4357 ft | 181 kts | 68° |
| 2026-05-01 08:48 | 49.49937 | 11.20010 | 4876 ft | 185 kts | 54° |
| 2026-05-01 08:48 | 49.50833 | 11.21484 | 5420 ft | 191 kts | 50° |
| 2026-05-01 08:49 | 49.51862 | 11.22842 | 5933 ft | 197 kts | 41° |
| 2026-05-01 08:49 | 49.52997 | 11.24079 | 6445 ft | 202 kts | 39° |
| 2026-05-01 08:49 | 49.54187 | 11.25373 | 6756 ft | 214 kts | 39° |
| 2026-05-01 08:49 | 49.55388 | 11.26699 | 7072 ft | 216 kts | 40° |
| 2026-05-01 08:50 | 49.56623 | 11.28082 | 7334 ft | 219 kts | 40° |
| 2026-05-01 08:50 | 49.57857 | 11.29479 | 7574 ft | 221 kts | 40° |
| 2026-05-01 08:50 | 49.59098 | 11.30891 | 7856 ft | 223 kts | 40° |
| 2026-05-01 08:50 | 49.60335 | 11.32318 | 8111 ft | 224 kts | 40° |
| 2026-05-01 08:51 | 49.61594 | 11.33770 | 8387 ft | 225 kts | 40° |
| 2026-05-01 08:51 | 49.62848 | 11.35233 | 8639 ft | 226 kts | 40° |
| 2026-05-01 08:51 | 49.64092 | 11.36675 | 8946 ft | 227 kts | 41° |
| 2026-05-01 08:51 | 49.65349 | 11.38162 | 9233 ft | 227 kts | 40° |
| 2026-05-01 08:52 | 49.66623 | 11.39636 | 9529 ft | 227 kts | 39° |
| 2026-05-01 08:52 | 49.67881 | 11.41082 | 9838 ft | 228 kts | 40° |
| 2026-05-01 08:52 | 49.69161 | 11.42569 | 10125 ft | 230 kts | 40° |
| 2026-05-01 08:52 | 49.70016 | 11.43561 | 10305 ft | 232 kts | 40° |
| 2026-05-01 08:53 | 49.71732 | 11.45556 | 10642 ft | 234 kts | 40° |
| 2026-05-01 08:53 | 49.73038 | 11.47088 | 10873 ft | 235 kts | 40° |
| 2026-05-01 08:53 | 49.74347 | 11.48622 | 11097 ft | 236 kts | 40° |
| 2026-05-01 08:53 | 49.75212 | 11.49639 | 11274 ft | 234 kts | 40° |
| 2026-05-01 08:54 | 49.76510 | 11.51164 | 11535 ft | 233 kts | 40° |
| 2026-05-01 08:54 | 49.77800 | 11.52683 | 11794 ft | 233 kts | 40° |
| 2026-05-01 08:54 | 49.79098 | 11.54203 | 12045 ft | 233 kts | 40° |
| 2026-05-01 08:54 | 49.80392 | 11.55714 | 12304 ft | 233 kts | 40° |
| 2026-05-01 08:55 | 49.81679 | 11.57215 | 12570 ft | 232 kts | 40° |
| 2026-05-01 08:55 | 49.82969 | 11.58724 | 12817 ft | 232 kts | 40° |
| 2026-05-01 08:55 | 49.84256 | 11.60234 | 13102 ft | 232 kts | 40° |
| 2026-05-01 08:55 | 49.85545 | 11.61749 | 13371 ft | 232 kts | 41° |
| 2026-05-01 08:56 | 49.86820 | 11.63253 | 13595 ft | 232 kts | 40° |
| 2026-05-01 08:56 | 49.88108 | 11.64757 | 13865 ft | 231 kts | 40° |
| 2026-05-01 08:56 | 49.89401 | 11.66274 | 14141 ft | 231 kts | 40° |
| 2026-05-01 08:56 | 49.90663 | 11.67758 | 14377 ft | 230 kts | 40° |
| 2026-05-01 08:57 | 49.91942 | 11.69264 | 14615 ft | 229 kts | 40° |
| 2026-05-01 08:57 | 49.93213 | 11.70760 | 14856 ft | 228 kts | 40° |
| 2026-05-01 08:57 | 49.94459 | 11.72234 | 15097 ft | 228 kts | 40° |
| 2026-05-01 08:57 | 49.95728 | 11.73735 | 15286 ft | 230 kts | 40° |
| 2026-05-01 08:58 | 49.97015 | 11.75261 | 15355 ft | 235 kts | 40° |
| 2026-05-01 08:58 | 49.98328 | 11.76814 | 15397 ft | 242 kts | 40° |
| 2026-05-01 08:58 | 49.99696 | 11.78434 | 15407 ft | 248 kts | 40° |
| 2026-05-01 08:58 | 50.01084 | 11.80074 | 15417 ft | 252 kts | 40° |
| 2026-05-01 08:59 | 50.02482 | 11.81726 | 15416 ft | 256 kts | 40° |
| 2026-05-01 08:59 | 50.03904 | 11.83409 | 15431 ft | 259 kts | 40° |
| 2026-05-01 08:59 | 50.05335 | 11.85103 | 15421 ft | 261 kts | 40° |
| 2026-05-01 08:59 | 50.06791 | 11.86830 | 15427 ft | 263 kts | 40° |
| 2026-05-01 09:00 | 50.08257 | 11.88571 | 15424 ft | 265 kts | 40° |
| 2026-05-01 09:00 | 50.09709 | 11.90299 | 15426 ft | 266 kts | 40° |
| 2026-05-01 09:00 | 50.11194 | 11.92061 | 15431 ft | 267 kts | 40° |
| 2026-05-01 09:00 | 50.12676 | 11.93826 | 15428 ft | 268 kts | 40° |
| 2026-05-01 09:01 | 50.14165 | 11.95602 | 15427 ft | 269 kts | 40° |
| 2026-05-01 09:01 | 50.15640 | 11.97359 | 15426 ft | 270 kts | 40° |
| 2026-05-01 09:01 | 50.17135 | 11.99142 | 15421 ft | 270 kts | 40° |
| 2026-05-01 09:01 | 50.18617 | 12.00912 | 15415 ft | 270 kts | 40° |
| 2026-05-01 09:02 | 50.20115 | 12.02690 | 15423 ft | 269 kts | 40° |
| 2026-05-01 09:02 | 50.21595 | 12.04464 | 15425 ft | 265 kts | 44° |
| 2026-05-01 09:02 | 50.22621 | 12.06808 | 15430 ft | 261 kts | 64° |
| 2026-05-01 09:02 | 50.23409 | 12.09343 | 15427 ft | 263 kts | 64° |
| 2026-05-01 09:03 | 50.24259 | 12.11893 | 15426 ft | 264 kts | 62° |
| 2026-05-01 09:03 | 50.25218 | 12.14351 | 15431 ft | 264 kts | 58° |
| 2026-05-01 09:03 | 50.26246 | 12.16742 | 15428 ft | 264 kts | 57° |
| 2026-05-01 09:03 | 50.27278 | 12.19101 | 15429 ft | 265 kts | 57° |
| 2026-05-01 09:04 | 50.28312 | 12.21493 | 15429 ft | 265 kts | 58° |
| 2026-05-01 09:04 | 50.29328 | 12.23911 | 15419 ft | 265 kts | 58° |
| 2026-05-01 09:04 | 50.30327 | 12.26303 | 15427 ft | 266 kts | 58° |
| 2026-05-01 09:04 | 50.31347 | 12.28735 | 15441 ft | 266 kts | 58° |
| 2026-05-01 09:05 | 50.32366 | 12.31172 | 15425 ft | 267 kts | 58° |
| 2026-05-01 09:05 | 50.33381 | 12.33608 | 15428 ft | 267 kts | 58° |
| 2026-05-01 09:05 | 50.34387 | 12.36022 | 15423 ft | 267 kts | 58° |
| 2026-05-01 09:05 | 50.35402 | 12.38461 | 15434 ft | 267 kts | 58° |
| 2026-05-01 09:06 | 50.36406 | 12.40877 | 15427 ft | 267 kts | 58° |
| 2026-05-01 09:06 | 50.37423 | 12.43329 | 15424 ft | 267 kts | 58° |
| 2026-05-01 09:06 | 50.38437 | 12.45773 | 15428 ft | 267 kts | 58° |
| 2026-05-01 09:06 | 50.39455 | 12.48226 | 15424 ft | 267 kts | 58° |
| 2026-05-01 09:07 | 50.40468 | 12.50672 | 15431 ft | 267 kts | 58° |
| 2026-05-01 09:07 | 50.41468 | 12.53087 | 15431 ft | 267 kts | 58° |
| 2026-05-01 09:07 | 50.42477 | 12.55527 | 15424 ft | 266 kts | 58° |
| 2026-05-01 09:07 | 50.43486 | 12.57983 | 15437 ft | 266 kts | 58° |
| 2026-05-01 09:08 | 50.44494 | 12.60430 | 15437 ft | 267 kts | 58° |
| 2026-05-01 09:08 | 50.45495 | 12.62849 | 15431 ft | 267 kts | 58° |
| 2026-05-01 09:08 | 50.46504 | 12.65304 | 15424 ft | 267 kts | 58° |
| 2026-05-01 09:08 | 50.47515 | 12.67760 | 15421 ft | 267 kts | 58° |
| 2026-05-01 09:09 | 50.48519 | 12.70205 | 15426 ft | 266 kts | 58° |
| 2026-05-01 09:09 | 50.49523 | 12.72648 | 15431 ft | 266 kts | 58° |
| 2026-05-01 09:09 | 50.50513 | 12.75058 | 15427 ft | 266 kts | 58° |
| 2026-05-01 09:09 | 50.51521 | 12.77517 | 15434 ft | 266 kts | 58° |
| 2026-05-01 09:10 | 50.52526 | 12.79977 | 15426 ft | 266 kts | 58° |
| 2026-05-01 09:10 | 50.53517 | 12.82402 | 15432 ft | 267 kts | 58° |
| 2026-05-01 09:10 | 50.54526 | 12.84864 | 15421 ft | 267 kts | 58° |
| 2026-05-01 09:10 | 50.55523 | 12.87300 | 15423 ft | 266 kts | 58° |
| 2026-05-01 09:11 | 50.56525 | 12.89757 | 15428 ft | 266 kts | 58° |
| 2026-05-01 09:11 | 50.57521 | 12.92213 | 15425 ft | 266 kts | 58° |
| 2026-05-01 09:11 | 50.58510 | 12.94632 | 15434 ft | 265 kts | 58° |
| 2026-05-01 09:11 | 50.59520 | 12.97109 | 15429 ft | 266 kts | 58° |
| 2026-05-01 09:12 | 50.60506 | 12.99537 | 15429 ft | 266 kts | 58° |
| 2026-05-01 09:12 | 50.61504 | 13.01996 | 15431 ft | 265 kts | 58° |
| 2026-05-01 09:12 | 50.62503 | 13.04440 | 15429 ft | 265 kts | 57° |
| 2026-05-01 09:12 | 50.63868 | 13.06364 | 15432 ft | 267 kts | 31° |
| 2026-05-01 09:13 | 50.65361 | 13.07931 | 15428 ft | 258 kts | 51° |
| 2026-05-01 09:13 | 50.66104 | 13.10465 | 15429 ft | 258 kts | 76° |
| 2026-05-01 09:13 | 50.66518 | 13.13230 | 15435 ft | 260 kts | 74° |
| 2026-05-01 09:13 | 50.67098 | 13.15938 | 15424 ft | 261 kts | 68° |
| 2026-05-01 09:14 | 50.67901 | 13.18524 | 15427 ft | 262 kts | 61° |
| 2026-05-01 09:14 | 50.68850 | 13.20950 | 15434 ft | 262 kts | 58° |
| 2026-05-01 09:14 | 50.69848 | 13.23358 | 15429 ft | 262 kts | 58° |
| 2026-05-01 09:14 | 50.70833 | 13.25750 | 15426 ft | 262 kts | 58° |
| 2026-05-01 09:15 | 50.71818 | 13.28224 | 15433 ft | 262 kts | 59° |
| 2026-05-01 09:15 | 50.72765 | 13.30641 | 15433 ft | 262 kts | 59° |
| 2026-05-01 09:15 | 50.73715 | 13.33074 | 15438 ft | 262 kts | 59° |
| 2026-05-01 09:15 | 50.74676 | 13.35535 | 15435 ft | 263 kts | 59° |
| 2026-05-01 09:16 | 50.75637 | 13.38008 | 15430 ft | 263 kts | 59° |
| 2026-05-01 09:16 | 50.76596 | 13.40473 | 15437 ft | 263 kts | 59° |
| 2026-05-01 09:16 | 50.77552 | 13.42939 | 15429 ft | 263 kts | 59° |
| 2026-05-01 09:17 | 50.79493 | 13.47969 | 14833 ft | 270 kts | 59° |
| 2026-05-01 09:17 | 50.80444 | 13.50507 | 14465 ft | 267 kts | 60° |
| 2026-05-01 09:17 | 50.82346 | 13.55527 | 13701 ft | 263 kts | 59° |
| 2026-05-01 09:18 | 50.83366 | 13.57903 | 13309 ft | 261 kts | 47° |
| 2026-05-01 09:18 | 50.86174 | 13.61451 | 12539 ft | 260 kts | 39° |
| 2026-05-01 09:19 | 50.88986 | 13.65074 | 11774 ft | 260 kts | 43° |
| 2026-05-01 09:19 | 50.90336 | 13.66947 | 11408 ft | 251 kts | 43° |
| 2026-05-01 09:19 | 50.91630 | 13.68720 | 11050 ft | 241 kts | 43° |
| 2026-05-01 09:20 | 50.94510 | 13.70524 | 10321 ft | 232 kts | 357° |
| 2026-05-01 09:20 | 50.97554 | 13.69187 | 9516 ft | 232 kts | 325° |
| 2026-05-01 09:21 | 50.98957 | 13.64588 | 8749 ft | 234 kts | 292° |
| 2026-05-01 09:21 | 50.99533 | 13.62238 | 8374 ft | 231 kts | 297° |
| 2026-05-01 09:21 | 51.01110 | 13.57826 | 7644 ft | 227 kts | 308° |
| 2026-05-01 09:22 | 51.02959 | 13.53789 | 6891 ft | 225 kts | 309° |
| 2026-05-01 09:22 | 51.04757 | 13.49863 | 6340 ft | 216 kts | 308° |
| 2026-05-01 09:23 | 51.05417 | 13.47768 | 6014 ft | 212 kts | 279° |
| 2026-05-01 09:23 | 51.04261 | 13.43755 | 5519 ft | 205 kts | 227° |
| 2026-05-01 09:24 | 51.02158 | 13.40984 | 4982 ft | 192 kts | 187° |
| 2026-05-01 09:24 | 51.00928 | 13.41406 | 4752 ft | 179 kts | 142° |
| 2026-05-01 09:24 | 50.99340 | 13.44305 | 4574 ft | 171 kts | 127° |
| 2026-05-01 09:25 | 50.97891 | 13.47310 | 4230 ft | 172 kts | 125° |
| 2026-05-01 09:25 | 50.96494 | 13.50249 | 4016 ft | 161 kts | 125° |
| 2026-05-01 09:26 | 50.95829 | 13.51655 | 3989 ft | 159 kts | 123° |
| 2026-05-01 09:26 | 50.96219 | 13.54463 | 3968 ft | 144 kts | 39° |
| 2026-05-01 09:26 | 50.97015 | 13.55470 | 3976 ft | 149 kts | 39° |
| 2026-05-01 09:27 | 50.98704 | 13.57537 | 4013 ft | 158 kts | 37° |
| 2026-05-01 09:27 | 50.99594 | 13.58601 | 4044 ft | 161 kts | 38° |
| 2026-05-01 09:27 | 51.00449 | 13.59627 | 3885 ft | 146 kts | 37° |
| 2026-05-01 09:28 | 51.01209 | 13.60545 | 3700 ft | 130 kts | 37° |
| 2026-05-01 09:28 | 51.01898 | 13.61375 | 3521 ft | 120 kts | 37° |
| 2026-05-01 09:28 | 51.02545 | 13.62155 | 3342 ft | 118 kts | 37° |
| 2026-05-01 09:28 | 51.03184 | 13.62946 | 3183 ft | 118 kts | 37° |
| 2026-05-01 09:29 | 51.04505 | 13.64567 | 2840 ft | 118 kts | 37° |
| 2026-05-01 09:29 | 51.05014 | 13.65219 | 2725 ft | 112 kts | 38° |
| 2026-05-01 09:30 | 51.06199 | 13.66864 | 2433 ft | 115 kts | 40° |
| 2026-05-01 09:30 | 51.06815 | 13.67716 | 2266 ft | 116 kts | 39° |
| 2026-05-01 09:30 | 51.07935 | 13.69236 | 1979 ft | 114 kts | 39° |
| 2026-05-01 09:31 | 51.08524 | 13.70049 | 1818 ft | 113 kts | 40° |
| 2026-05-01 09:31 | 51.09105 | 13.70863 | 1669 ft | 113 kts | 40° |
| 2026-05-01 09:31 | 51.10247 | 13.72422 | 1366 ft | 112 kts | 40° |
| 2026-05-01 09:32 | 51.10760 | 13.73131 | 1223 ft | 111 kts | 39° |
| 2026-05-01 09:32 | 51.11962 | 13.74760 | 941 ft | 130 kts | 39° |
| 2026-05-01 09:32 | 51.12634 | 13.75684 | 771 ft | 126 kts | 39° |
| 2026-05-01 09:33 | 51.13219 | 13.76483 | 738 ft | 73 kts | 39° |
| 2026-05-01 09:33 | 51.13372 | 13.76724 | 730 ft | 8 kts | 88° |
| 2026-05-01 09:33 | 51.13265 | 13.76932 | 729 ft | 16 kts | 133° |
| 2026-05-01 09:34 | 51.13195 | 13.76947 | 733 ft | 8 kts | 227° |
| 2026-05-01 09:34 | 51.13154 | 13.76888 | 736 ft | 10 kts | 220° |
| 2026-05-01 09:34 | 51.13043 | 13.76741 | 740 ft | 12 kts | 220° |
| 2026-05-01 09:35 | 51.12986 | 13.76664 | 742 ft | 10 kts | 221° |
| 2026-05-01 09:35 | 51.12872 | 13.76505 | 742 ft | 11 kts | 220° |
| 2026-05-01 09:35 | 51.12809 | 13.76451 | 745 ft | 10 kts | 169° |
| 2026-05-01 09:36 | 51.12759 | 13.76514 | 746 ft | 10 kts | 131° |
| 2026-05-01 09:36 | 51.12715 | 13.76594 | 748 ft | 9 kts | 131° |
| 2026-05-01 09:36 | 51.12702 | 13.76647 | 748 ft | 1 kts | 54° |
| 2026-05-01 09:36 | 51.12716 | 13.76665 | 747 ft | 5 kts | 40° |
| 2026-05-01 09:37 | 51.12748 | 13.76709 | 747 ft | 7 kts | 41° |
| 2026-05-01 09:37 | 51.12771 | 13.76740 | 745 ft | 0 kts | 41° |